Aviation Digital Data Service (ADDS)

Output produced by METARs form (1217 UTC 15 November 2018)
found at http://www.aviationweather.gov/metar/data/
 
DBBB 151200Z 20007KT 8000 TS SCT011 FEW020CB 26/24 Q1010 NOSIG
TAF DBBB 151100Z 1512/1618 22010KT 8000 TS BKN012 FEW023CB 
     BECMG 1515/1517 NSW SCT013 
     BECMG 1600/1602 VRB02KT 
     TEMPO 1604/1608 4000 BR 
     BECMG 1609/1611 22010KT